createdAt,value
2023-01-19T00:00:23.994Z,12.50
2023-01-19T00:01:26.689Z,13.70
2023-01-19T00:02:28.414Z,14.17
2023-01-19T00:03:30.116Z,13.80
2023-01-19T00:04:31.927Z,13.80
2023-01-19T00:05:35.896Z,13.23
2023-01-19T00:06:37.660Z,15.37
2023-01-19T00:07:39.441Z,10.80
2023-01-19T00:08:41.505Z,13.63
2023-01-19T00:09:43.604Z,12.00
2023-01-19T00:10:47.643Z,12.73
2023-01-19T00:11:49.330Z,13.13
2023-01-19T00:12:51.003Z,11.90
2023-01-19T00:13:53.653Z,14.43
2023-01-19T00:14:55.401Z,12.77
2023-01-19T00:15:57.341Z,15.10
2023-01-19T00:16:59.580Z,14.47
2023-01-19T00:18:01.592Z,13.80
2023-01-19T00:19:03.466Z,14.93
2023-01-19T00:20:05.714Z,17.60
2023-01-19T00:21:07.433Z,14.17
2023-01-19T00:22:09.167Z,13.70
2023-01-19T00:23:10.939Z,13.03
2023-01-19T00:24:13.908Z,13.17
2023-01-19T00:25:15.693Z,13.53
2023-01-19T00:26:17.768Z,14.70
2023-01-19T00:27:19.535Z,17.43
2023-01-19T00:28:21.314Z,11.70
2023-01-19T00:29:24.083Z,13.07
2023-01-19T00:30:25.891Z,17.60
2023-01-19T00:31:30.088Z,15.43
2023-01-19T00:32:31.896Z,11.87
2023-01-19T00:33:33.599Z,13.40
2023-01-19T00:34:39.607Z,17.13
2023-01-19T00:35:44.753Z,13.87
2023-01-19T00:36:46.520Z,13.67
2023-01-19T00:37:48.308Z,14.83
2023-01-19T00:38:50.138Z,14.43
2023-01-19T00:39:51.881Z,14.47
2023-01-19T00:40:53.871Z,13.17
2023-01-19T00:42:14.291Z,14.27
2023-01-19T00:43:16.219Z,12.93
2023-01-19T00:44:18.007Z,15.50
2023-01-19T00:45:22.151Z,13.93
2023-01-19T00:46:27.173Z,12.17
2023-01-19T00:47:28.922Z,14.17
2023-01-19T00:48:30.766Z,12.83
2023-01-19T00:49:32.502Z,15.40
2023-01-19T00:50:34.513Z,16.90
2023-01-19T00:51:36.328Z,15.67
2023-01-19T00:52:39.077Z,15.17
2023-01-19T00:53:40.762Z,15.90
2023-01-19T00:54:42.542Z,12.17
2023-01-19T00:55:44.238Z,15.27
2023-01-19T00:56:45.960Z,15.83
2023-01-19T00:57:47.796Z,14.30
2023-01-19T00:58:49.523Z,14.20
2023-01-19T00:59:51.326Z,14.40
2023-01-19T01:00:54.109Z,13.63
2023-01-19T01:01:56.107Z,13.30
2023-01-19T01:02:58.350Z,14.07
2023-01-19T01:04:00.309Z,14.97
2023-01-19T01:05:03.428Z,15.00
2023-01-19T01:06:08.193Z,14.17
2023-01-19T01:07:09.943Z,13.57
2023-01-19T01:08:11.699Z,12.83
2023-01-19T01:09:13.519Z,11.93
2023-01-19T01:10:22.505Z,12.83
2023-01-19T01:11:24.209Z,16.20
2023-01-19T01:12:26.013Z,14.63
2023-01-19T01:13:28.486Z,12.73
2023-01-19T01:14:30.667Z,16.93
2023-01-19T01:15:32.466Z,12.20
2023-01-19T01:16:34.296Z,14.93
2023-01-19T01:17:36.682Z,13.57
2023-01-19T01:18:38.448Z,13.73
2023-01-19T01:19:43.137Z,13.03
2023-01-19T01:20:44.834Z,14.30
2023-01-19T01:21:46.739Z,13.50
2023-01-19T01:22:51.732Z,13.70
2023-01-19T01:23:53.501Z,14.80
2023-01-19T01:24:55.597Z,14.60
2023-01-19T01:25:57.311Z,16.97
2023-01-19T01:26:59.022Z,13.13
2023-01-19T01:28:00.814Z,13.30
2023-01-19T01:29:02.624Z,15.40
2023-01-19T01:30:05.307Z,13.70
2023-01-19T01:31:07.087Z,14.90
2023-01-19T01:32:09.422Z,13.30
2023-01-19T01:33:13.935Z,16.20
2023-01-19T01:34:16.599Z,12.10
2023-01-19T01:35:18.610Z,14.03
2023-01-19T01:36:20.921Z,14.67
2023-01-19T01:37:22.644Z,14.43
2023-01-19T01:38:24.371Z,14.33
2023-01-19T01:39:26.181Z,17.47
2023-01-19T01:40:28.663Z,13.07
2023-01-19T01:41:30.698Z,13.77
2023-01-19T01:42:33.650Z,16.53
2023-01-19T01:43:48.792Z,14.27
2023-01-19T01:44:53.515Z,14.20
2023-01-19T01:45:55.442Z,14.30
2023-01-19T01:46:57.303Z,15.90
2023-01-19T01:48:08.680Z,14.33
2023-01-19T01:49:17.667Z,13.73
2023-01-19T01:51:02.759Z,13.00
2023-01-19T01:52:04.679Z,14.73
2023-01-19T01:53:11.265Z,15.33
2023-01-19T01:54:21.551Z,17.87
2023-01-19T01:55:24.413Z,15.67
2023-01-19T01:56:34.196Z,14.30
2023-01-19T01:57:39.232Z,15.50
2023-01-19T01:58:41.512Z,15.30
2023-01-19T01:59:46.720Z,13.17
2023-01-19T02:01:07.505Z,13.57
2023-01-19T02:02:37.961Z,13.53
2023-01-19T02:03:40.951Z,12.23
2023-01-19T02:04:53.903Z,15.47
2023-01-19T02:05:59.306Z,13.70
2023-01-19T02:07:20.221Z,16.67
2023-01-19T02:09:02.498Z,14.20
2023-01-19T02:10:23.741Z,15.43
2023-01-19T02:11:44.449Z,14.73
2023-01-19T02:13:04.798Z,13.70
2023-01-19T02:14:06.725Z,13.93
2023-01-19T02:15:16.229Z,14.83
2023-01-19T02:16:18.166Z,14.37
2023-01-19T02:17:19.894Z,15.50
2023-01-19T02:18:23.976Z,12.80
2023-01-19T02:19:33.723Z,16.07
2023-01-19T02:20:37.603Z,15.37
2023-01-19T02:21:47.411Z,14.50
2023-01-19T02:22:51.287Z,14.83
2023-01-19T02:23:57.924Z,17.00
2023-01-19T02:24:59.715Z,14.27
2023-01-19T02:26:02.405Z,15.73
2023-01-19T02:27:06.102Z,12.90
2023-01-19T02:28:08.625Z,14.73
2023-01-19T02:29:20.050Z,12.13
2023-01-19T02:30:21.959Z,16.30
2023-01-19T02:31:24.517Z,14.50
2023-01-19T02:32:26.456Z,13.17
2023-01-19T02:33:28.154Z,15.63
2023-01-19T02:34:30.567Z,14.93
2023-01-19T02:35:32.938Z,15.73
2023-01-19T02:36:54.380Z,15.43
2023-01-19T02:37:57.040Z,16.07
2023-01-19T02:39:00.496Z,17.07
2023-01-19T02:40:04.413Z,14.23
2023-01-19T02:41:08.903Z,14.77
2023-01-19T02:42:30.931Z,14.40
2023-01-19T02:43:33.457Z,29.27
2023-01-19T02:44:36.956Z,35.87
2023-01-19T02:45:39.578Z,28.07
2023-01-19T02:46:42.008Z,17.40
2023-01-19T02:47:50.047Z,13.57
2023-01-19T02:48:51.811Z,14.43
2023-01-19T02:50:00.715Z,14.43
2023-01-19T02:51:09.471Z,14.30
2023-01-19T02:52:17.945Z,13.70
2023-01-19T02:53:31.354Z,13.33
2023-01-19T02:54:39.065Z,14.27
2023-01-19T02:55:47.723Z,14.33
2023-01-19T02:57:11.074Z,13.23
2023-01-19T02:58:21.936Z,12.70
2023-01-19T02:59:45.800Z,15.30
2023-01-19T03:00:56.255Z,13.50
2023-01-19T03:02:04.236Z,15.10
2023-01-19T03:03:39.746Z,13.57
2023-01-19T03:05:11.351Z,13.67
2023-01-19T03:06:29.584Z,15.43
2023-01-19T03:07:55.810Z,13.40
2023-01-19T03:09:14.816Z,13.47
2023-01-19T03:10:37.753Z,15.13
2023-01-19T03:11:45.849Z,15.73
2023-01-19T03:12:57.697Z,14.57
2023-01-19T03:14:09.653Z,14.00
2023-01-19T03:15:20.366Z,16.90
2023-01-19T03:16:48.509Z,17.17
2023-01-19T03:17:52.208Z,14.23
2023-01-19T03:18:59.741Z,14.70
2023-01-19T03:20:04.293Z,17.77
2023-01-19T03:21:07.862Z,16.23
2023-01-19T03:22:17.456Z,13.77
2023-01-19T03:23:23.475Z,13.67
2023-01-19T03:24:29.601Z,13.73
2023-01-19T03:25:35.457Z,14.03
2023-01-19T03:26:44.045Z,15.77
2023-01-19T03:27:48.660Z,14.30
2023-01-19T03:28:52.383Z,14.53
2023-01-19T03:30:05.484Z,16.23
2023-01-19T03:31:19.284Z,19.20
2023-01-19T03:32:25.909Z,17.53
2023-01-19T03:33:34.033Z,22.20
2023-01-19T03:34:38.171Z,16.57
2023-01-19T03:35:44.683Z,13.77
2023-01-19T03:36:51.839Z,16.63
2023-01-19T03:37:58.182Z,15.87
2023-01-19T03:39:03.479Z,13.10
2023-01-19T03:40:06.239Z,15.27
2023-01-19T03:41:14.037Z,14.87
2023-01-19T03:42:18.004Z,16.07
2023-01-19T03:43:21.493Z,15.17
2023-01-19T03:44:26.817Z,17.37
2023-01-19T03:45:30.809Z,16.77
2023-01-19T03:46:33.905Z,17.83
2023-01-19T03:47:36.356Z,18.07
2023-01-19T03:48:39.874Z,15.93
2023-01-19T03:49:45.409Z,15.47
2023-01-19T03:50:47.630Z,20.63
2023-01-19T03:51:49.506Z,16.27
2023-01-19T03:53:03.701Z,14.83
2023-01-19T03:54:07.063Z,15.83
2023-01-19T03:55:10.024Z,14.57
2023-01-19T03:56:19.689Z,12.97
2023-01-19T03:57:22.192Z,17.30
2023-01-19T03:58:24.212Z,16.67
2023-01-19T03:59:25.978Z,16.07
2023-01-19T04:00:27.787Z,17.23
2023-01-19T04:01:29.665Z,19.17
2023-01-19T04:02:31.453Z,17.43
2023-01-19T04:03:33.575Z,16.53
2023-01-19T04:04:35.342Z,15.90
2023-01-19T04:05:37.676Z,19.17
2023-01-19T04:06:39.996Z,16.20
2023-01-19T04:07:41.762Z,18.37
2023-01-19T04:08:43.578Z,18.40
2023-01-19T04:09:45.387Z,17.77
2023-01-19T04:10:47.114Z,16.43
2023-01-19T04:11:48.790Z,17.90
2023-01-19T04:12:56.446Z,16.90
2023-01-19T04:13:58.247Z,14.73
2023-01-19T04:15:00.009Z,15.30
2023-01-19T04:16:02.715Z,14.63
2023-01-19T04:17:04.687Z,13.07
2023-01-19T04:18:06.984Z,17.37
2023-01-19T04:19:08.667Z,17.20
2023-01-19T04:20:10.717Z,14.27
2023-01-19T04:21:12.473Z,15.80
2023-01-19T04:22:14.174Z,15.20
2023-01-19T04:23:15.885Z,15.10
2023-01-19T04:24:18.434Z,15.83
2023-01-19T04:25:20.439Z,15.67
2023-01-19T04:26:23.727Z,15.43
2023-01-19T04:27:26.063Z,16.03
2023-01-19T04:28:28.327Z,14.63
2023-01-19T04:29:30.018Z,15.90
2023-01-19T04:30:31.794Z,14.20
2023-01-19T04:31:35.642Z,16.13
2023-01-19T04:32:37.519Z,15.50
2023-01-19T04:33:39.216Z,16.63
2023-01-19T04:34:40.961Z,14.53
2023-01-19T04:35:42.718Z,14.97
2023-01-19T04:36:45.382Z,14.33
2023-01-19T04:37:47.155Z,15.70
2023-01-19T04:38:48.943Z,15.23
2023-01-19T04:39:51.531Z,13.33
2023-01-19T04:40:54.459Z,16.40
2023-01-19T04:41:57.541Z,15.70
2023-01-19T04:42:59.547Z,14.30
2023-01-19T04:44:01.512Z,15.67
2023-01-19T04:45:03.295Z,18.33
2023-01-19T04:46:05.278Z,15.30
2023-01-19T04:47:07.076Z,19.63
2023-01-19T04:48:08.753Z,18.90
2023-01-19T04:49:10.949Z,17.10
2023-01-19T04:50:12.650Z,15.47
2023-01-19T04:51:14.373Z,15.30
2023-01-19T04:52:16.140Z,19.57
2023-01-19T04:53:18.477Z,18.97
2023-01-19T04:54:21.334Z,17.63
2023-01-19T04:55:23.221Z,16.73
2023-01-19T04:56:25.030Z,15.37
2023-01-19T04:57:26.763Z,13.70
2023-01-19T04:58:28.535Z,16.60
2023-01-19T04:59:30.347Z,13.00
2023-01-19T05:00:32.104Z,17.37
2023-01-19T05:01:34.005Z,17.97
2023-01-19T05:02:36.482Z,17.17
2023-01-19T05:03:38.247Z,16.07
2023-01-19T05:04:40.405Z,14.00
2023-01-19T05:05:42.138Z,15.07
2023-01-19T05:06:43.905Z,18.77
2023-01-19T05:07:45.698Z,17.77
2023-01-19T05:08:47.380Z,17.77
2023-01-19T05:09:49.338Z,13.83
2023-01-19T05:10:51.092Z,17.13
2023-01-19T05:11:52.845Z,16.40
2023-01-19T05:12:55.009Z,20.80
2023-01-19T05:13:56.770Z,17.47
2023-01-19T05:14:58.520Z,17.93
2023-01-19T05:16:01.077Z,16.43
2023-01-19T05:17:03.259Z,17.93
2023-01-19T05:18:05.068Z,18.70
2023-01-19T05:19:06.847Z,17.87
2023-01-19T05:20:11.167Z,20.33
2023-01-19T05:21:13.016Z,17.47
2023-01-19T05:22:15.348Z,18.03
2023-01-19T05:23:17.103Z,16.20
2023-01-19T05:24:19.202Z,18.33
2023-01-19T05:25:21.172Z,17.05
2023-01-19T05:26:22.969Z,17.73
2023-01-19T05:27:24.769Z,19.53
2023-01-19T05:28:30.495Z,19.10
2023-01-19T05:29:32.216Z,18.70
2023-01-19T05:30:34.295Z,16.57
2023-01-19T05:31:37.142Z,20.30
2023-01-19T05:32:39.277Z,18.93
2023-01-19T05:33:41.337Z,15.27
2023-01-19T05:34:43.174Z,15.23
2023-01-19T05:35:44.920Z,18.63
2023-01-19T05:36:46.571Z,14.87
2023-01-19T05:37:48.999Z,18.23
2023-01-19T05:38:50.810Z,14.47
2023-01-19T05:39:53.047Z,17.03
2023-01-19T05:40:58.603Z,17.17
2023-01-19T05:42:00.402Z,14.73
2023-01-19T05:43:05.085Z,18.93
2023-01-19T05:44:07.084Z,18.43
2023-01-19T05:45:09.287Z,19.37
2023-01-19T05:46:11.787Z,16.97
2023-01-19T05:47:13.480Z,16.10
2023-01-19T05:48:15.231Z,16.83
2023-01-19T05:49:16.897Z,16.37
2023-01-19T05:50:18.692Z,14.00
2023-01-19T05:51:20.554Z,15.10
2023-01-19T05:52:22.403Z,18.07
2023-01-19T05:53:24.221Z,16.27
2023-01-19T05:54:26.111Z,15.00
2023-01-19T05:55:28.478Z,16.10
2023-01-19T05:56:30.717Z,18.27
2023-01-19T05:57:33.173Z,19.93
2023-01-19T05:58:35.951Z,15.53
2023-01-19T05:59:37.766Z,15.60
2023-01-19T06:00:39.516Z,15.70
2023-01-19T06:01:41.881Z,19.17
2023-01-19T06:02:44.066Z,15.10
2023-01-19T06:03:45.866Z,17.73
2023-01-19T06:04:47.579Z,14.67
2023-01-19T06:05:49.404Z,16.83
2023-01-19T06:06:51.652Z,20.83
2023-01-19T06:07:55.845Z,15.20
2023-01-19T06:08:57.608Z,16.00
2023-01-19T06:09:59.303Z,15.53
2023-01-19T06:11:01.177Z,14.17
2023-01-19T06:12:02.977Z,19.83
2023-01-19T06:13:04.759Z,16.43
2023-01-19T06:14:06.525Z,18.03
2023-01-19T06:15:08.545Z,15.03
2023-01-19T06:16:11.688Z,16.93
2023-01-19T06:17:13.521Z,15.50
2023-01-19T06:18:15.315Z,17.63
2023-01-19T06:19:17.098Z,19.47
2023-01-19T06:20:18.868Z,19.13
2023-01-19T06:21:22.289Z,15.33
2023-01-19T06:22:24.693Z,21.47
2023-01-19T06:23:29.527Z,17.87
2023-01-19T06:24:31.218Z,17.93
2023-01-19T06:25:32.955Z,18.53
2023-01-19T06:26:34.615Z,21.53
2023-01-19T06:27:36.489Z,19.47
2023-01-19T06:28:38.231Z,17.97
2023-01-19T06:29:40.131Z,16.20
2023-01-19T06:30:41.976Z,17.00
2023-01-19T06:31:43.764Z,18.73
2023-01-19T06:32:45.510Z,18.43
2023-01-19T06:33:47.385Z,17.73
2023-01-19T06:34:49.098Z,19.07
2023-01-19T06:35:51.636Z,16.03
2023-01-19T06:36:53.360Z,20.93
2023-01-19T06:37:55.571Z,19.77
2023-01-19T06:38:57.340Z,21.53
2023-01-19T06:39:59.046Z,15.67
2023-01-19T06:41:03.213Z,18.47
2023-01-19T06:42:04.985Z,16.57
2023-01-19T06:43:07.848Z,18.30
2023-01-19T06:44:09.599Z,16.33
2023-01-19T06:45:11.413Z,19.40
2023-01-19T06:46:13.830Z,17.00
2023-01-19T06:47:16.693Z,18.30
2023-01-19T06:48:18.728Z,15.17
2023-01-19T06:49:20.475Z,16.93
2023-01-19T06:50:22.338Z,14.93
2023-01-19T06:51:24.467Z,16.67
2023-01-19T06:52:26.128Z,20.60
2023-01-19T06:53:29.106Z,16.37
2023-01-19T06:54:30.817Z,16.90
2023-01-19T06:55:32.598Z,18.23
2023-01-19T06:56:34.299Z,19.70
2023-01-19T06:57:38.587Z,16.23
2023-01-19T06:58:42.080Z,18.87
2023-01-19T06:59:43.841Z,15.63
2023-01-19T07:00:45.746Z,15.43
2023-01-19T07:01:47.526Z,19.37
2023-01-19T07:02:49.291Z,16.07
2023-01-19T07:03:50.990Z,17.37
2023-01-19T07:04:52.647Z,14.93
2023-01-19T07:05:54.538Z,16.10
2023-01-19T07:06:56.339Z,14.43
2023-01-19T07:07:58.107Z,13.43
2023-01-19T07:09:00.287Z,15.53
2023-01-19T07:10:02.037Z,15.60
2023-01-19T07:11:22.167Z,18.83
2023-01-19T07:12:30.275Z,14.90
2023-01-19T07:13:33.351Z,14.83
2023-01-19T07:14:35.085Z,16.73
2023-01-19T07:15:37.834Z,16.50
2023-01-19T07:16:39.950Z,14.47
2023-01-19T07:17:42.240Z,15.23
2023-01-19T07:18:43.902Z,13.80
2023-01-19T07:19:46.599Z,17.30
2023-01-19T07:20:49.281Z,16.83
2023-01-19T07:21:50.963Z,14.13
2023-01-19T07:22:57.211Z,14.30
2023-01-19T07:23:58.998Z,13.00
2023-01-19T07:25:01.210Z,15.60
2023-01-19T07:26:02.927Z,16.87
2023-01-19T07:27:05.383Z,13.87
2023-01-19T07:28:07.245Z,14.83
2023-01-19T07:29:09.076Z,13.13
2023-01-19T07:30:11.278Z,13.83
2023-01-19T07:31:13.079Z,13.97
2023-01-19T07:32:14.939Z,16.70
2023-01-19T07:33:16.615Z,15.40
2023-01-19T07:34:18.357Z,15.33
2023-01-19T07:35:21.934Z,15.93
2023-01-19T07:36:23.832Z,19.57
2023-01-19T07:37:25.668Z,15.37
2023-01-19T07:38:27.430Z,17.23
2023-01-19T07:39:30.860Z,15.23
2023-01-19T07:40:33.735Z,15.17
2023-01-19T07:41:35.603Z,11.87
2023-01-19T07:42:38.039Z,15.97
2023-01-19T07:43:39.925Z,14.80
2023-01-19T07:44:41.662Z,14.53
2023-01-19T07:45:45.051Z,14.10
2023-01-19T07:46:47.092Z,14.70
2023-01-19T07:47:49.783Z,13.90
2023-01-19T07:48:51.549Z,14.23
2023-01-19T07:49:53.263Z,15.40
2023-01-19T07:51:11.713Z,15.70
2023-01-19T07:52:14.356Z,14.07
2023-01-19T07:53:16.766Z,13.63
2023-01-19T07:54:18.448Z,12.80
2023-01-19T07:55:20.861Z,11.03
2023-01-19T07:56:24.311Z,16.80
2023-01-19T07:57:26.279Z,13.90
2023-01-19T07:58:28.134Z,12.93
2023-01-19T07:59:31.080Z,13.90
2023-01-19T08:00:34.063Z,13.70
2023-01-19T08:01:35.858Z,14.47
2023-01-19T08:02:37.964Z,13.90
2023-01-19T08:03:39.881Z,15.33
2023-01-19T08:04:41.749Z,12.67
2023-01-19T08:05:43.797Z,12.23
2023-01-19T08:06:46.745Z,14.10
2023-01-19T08:07:48.509Z,13.87
2023-01-19T08:08:50.571Z,14.27
2023-01-19T08:09:52.335Z,15.93
2023-01-19T08:10:53.990Z,15.00
2023-01-19T08:11:55.728Z,13.80
2023-01-19T08:12:58.396Z,14.27
2023-01-19T08:14:00.936Z,13.07
2023-01-19T08:15:03.273Z,14.53
2023-01-19T08:16:05.937Z,14.60
2023-01-19T08:17:07.712Z,15.73
2023-01-19T08:18:11.582Z,13.83
2023-01-19T08:19:13.317Z,16.10
2023-01-19T08:20:15.161Z,17.37
2023-01-19T08:21:16.875Z,14.73
2023-01-19T08:22:18.585Z,12.53
2023-01-19T08:23:20.351Z,14.87
2023-01-19T08:24:22.951Z,14.47
2023-01-19T08:25:25.531Z,12.97
2023-01-19T08:26:29.295Z,14.87
2023-01-19T08:27:31.328Z,15.37
2023-01-19T08:28:33.013Z,14.50
2023-01-19T08:29:34.748Z,13.83
2023-01-19T08:30:36.805Z,17.87
2023-01-19T08:31:39.674Z,16.07
2023-01-19T08:32:41.768Z,13.73
2023-01-19T08:33:44.219Z,12.10
2023-01-19T08:34:45.915Z,13.50
2023-01-19T08:35:51.061Z,12.10
2023-01-19T08:36:52.875Z,10.80
2023-01-19T08:37:55.188Z,14.70
2023-01-19T08:38:57.287Z,14.40
2023-01-19T08:39:59.024Z,13.90
2023-01-19T08:41:00.758Z,11.97
2023-01-19T08:42:02.574Z,12.77
2023-01-19T08:43:09.537Z,9.43
2023-01-19T08:44:11.230Z,10.97
2023-01-19T08:45:13.092Z,11.00
2023-01-19T08:46:17.455Z,10.50
2023-01-19T08:47:19.767Z,10.13
2023-01-19T08:48:22.769Z,9.87
2023-01-19T08:49:24.481Z,11.43
2023-01-19T08:50:28.108Z,9.47
2023-01-19T08:51:29.889Z,13.23
2023-01-19T08:52:31.642Z,10.70
2023-01-19T08:53:34.170Z,10.33
2023-01-19T08:54:35.971Z,15.07
2023-01-19T08:55:38.157Z,12.27
2023-01-19T08:56:39.936Z,11.33
2023-01-19T08:57:42.726Z,9.20
2023-01-19T08:58:46.735Z,10.53
2023-01-19T08:59:51.125Z,11.63
2023-01-19T09:00:53.550Z,9.20
2023-01-19T09:01:55.358Z,8.83
2023-01-19T09:02:57.779Z,12.47
2023-01-19T09:03:59.592Z,8.10
2023-01-19T09:05:01.296Z,10.20
2023-01-19T09:06:06.401Z,10.10
2023-01-19T09:07:08.163Z,8.60
2023-01-19T09:08:14.403Z,8.67
2023-01-19T09:09:16.223Z,9.20
2023-01-19T09:10:18.911Z,8.67
2023-01-19T09:11:20.784Z,10.60
2023-01-19T09:12:22.559Z,8.90
2023-01-19T09:13:24.662Z,8.70
2023-01-19T09:14:26.353Z,13.10
2023-01-19T09:15:28.099Z,10.63
2023-01-19T09:16:30.333Z,9.47
2023-01-19T09:17:32.231Z,10.60
2023-01-19T09:18:34.972Z,8.20
2023-01-19T09:19:36.722Z,10.70
2023-01-19T09:20:39.089Z,8.73
2023-01-19T09:21:40.803Z,9.10
2023-01-19T09:22:42.573Z,7.97
2023-01-19T09:23:44.602Z,10.03
2023-01-19T09:24:46.341Z,9.23
2023-01-19T09:25:48.519Z,7.63
2023-01-19T09:26:50.266Z,8.63
2023-01-19T09:27:52.089Z,8.67
2023-01-19T09:28:53.885Z,8.47
2023-01-19T09:29:55.580Z,8.33
2023-01-19T09:30:57.662Z,7.73
2023-01-19T09:31:59.410Z,8.97
2023-01-19T09:33:06.324Z,9.23
2023-01-19T09:34:08.025Z,9.13
2023-01-19T09:35:09.900Z,10.03
2023-01-19T09:36:11.679Z,8.23
2023-01-19T09:37:13.875Z,11.10
2023-01-19T09:38:16.856Z,9.23
2023-01-19T09:39:18.884Z,7.90
2023-01-19T09:40:21.004Z,7.80
2023-01-19T09:41:22.925Z,8.23
2023-01-19T09:42:38.561Z,7.83
2023-01-19T09:43:47.508Z,8.13
2023-01-19T09:44:50.537Z,9.43
2023-01-19T09:45:55.249Z,9.00
2023-01-19T09:46:56.937Z,8.90
2023-01-19T09:48:00.861Z,8.37
2023-01-19T09:49:13.677Z,7.60
2023-01-19T09:50:31.618Z,8.87
2023-01-19T09:51:38.381Z,5.77
2023-01-19T09:52:43.904Z,8.17
2023-01-19T09:54:10.594Z,9.43
2023-01-19T09:55:22.786Z,7.17
2023-01-19T09:56:25.105Z,8.97
2023-01-19T09:57:27.899Z,7.87
2023-01-19T09:58:29.612Z,7.47
2023-01-19T09:59:32.580Z,7.10
2023-01-19T10:00:34.379Z,7.87
2023-01-19T10:02:24.067Z,7.80
2023-01-19T10:03:25.827Z,8.93
2023-01-19T10:04:41.288Z,7.27
2023-01-19T10:05:47.568Z,6.83
2023-01-19T10:06:50.082Z,7.63
2023-01-19T10:08:17.252Z,6.40
2023-01-19T10:09:31.158Z,7.90
2023-01-19T10:10:33.262Z,6.77
2023-01-19T10:11:53.695Z,7.97
2023-01-19T10:12:58.693Z,8.43
2023-01-19T10:14:00.959Z,7.43
2023-01-19T10:15:06.788Z,8.93
2023-01-19T10:16:36.298Z,7.33
2023-01-19T10:17:50.395Z,8.40
2023-01-19T10:18:55.298Z,7.20
2023-01-19T10:19:58.479Z,10.33
2023-01-19T10:21:14.680Z,9.33
2023-01-19T10:22:25.708Z,8.90
2023-01-19T10:23:39.510Z,10.00
2023-01-19T10:24:43.461Z,6.37
2023-01-19T10:25:46.039Z,5.73
2023-01-19T10:26:58.154Z,10.77
2023-01-19T10:28:00.828Z,10.03
2023-01-19T10:29:13.207Z,5.83
2023-01-19T10:30:23.345Z,6.93
2023-01-19T10:31:25.720Z,4.97
2023-01-19T10:32:32.731Z,7.53
2023-01-19T10:33:35.316Z,7.13
2023-01-19T10:34:37.137Z,6.80
2023-01-19T10:35:38.894Z,8.33
2023-01-19T10:36:41.433Z,6.80
2023-01-19T10:37:44.810Z,9.00
2023-01-19T10:38:47.668Z,10.47
2023-01-19T10:39:54.862Z,6.87
2023-01-19T10:41:05.216Z,8.40
2023-01-19T10:42:12.853Z,9.97
2023-01-19T10:43:33.715Z,8.53
2023-01-19T10:44:37.622Z,4.87
2023-01-19T10:45:39.417Z,8.90
2023-01-19T10:46:45.608Z,7.00
2023-01-19T10:47:48.939Z,7.93
2023-01-19T10:48:54.188Z,7.27
2023-01-19T10:49:56.122Z,7.77
2023-01-19T10:51:06.168Z,6.40
2023-01-19T10:52:19.149Z,8.20
2023-01-19T10:53:22.598Z,7.77
2023-01-19T10:54:25.743Z,8.77
2023-01-19T10:55:31.611Z,7.50
2023-01-19T10:56:38.448Z,6.83
2023-01-19T10:57:43.414Z,6.23
2023-01-19T10:58:45.389Z,8.77
2023-01-19T10:59:50.789Z,5.50
2023-01-19T11:00:52.776Z,6.93
2023-01-19T11:02:13.884Z,8.10
2023-01-19T11:03:29.027Z,7.67
2023-01-19T11:04:30.778Z,9.43
2023-01-19T11:05:34.312Z,7.03
2023-01-19T11:06:36.056Z,7.53
2023-01-19T11:07:37.850Z,6.17
2023-01-19T11:08:39.664Z,7.17
2023-01-19T11:09:41.533Z,8.10
2023-01-19T11:10:53.007Z,6.93
2023-01-19T11:11:55.705Z,4.73
2023-01-19T11:13:26.780Z,7.73
2023-01-19T11:14:31.082Z,5.90
2023-01-19T11:15:32.813Z,7.47
2023-01-19T11:16:37.917Z,7.53
2023-01-19T11:17:45.590Z,7.20
2023-01-19T11:18:52.275Z,6.77
2023-01-19T11:20:00.141Z,7.43
2023-01-19T11:21:06.592Z,6.40
2023-01-19T11:22:24.139Z,7.23
2023-01-19T11:23:27.299Z,6.57
2023-01-19T11:24:30.398Z,7.90
2023-01-19T11:25:34.142Z,6.67
2023-01-19T11:26:48.195Z,4.83
2023-01-19T11:27:52.157Z,7.67
2023-01-19T11:28:56.093Z,7.10
2023-01-19T11:30:15.267Z,5.93
2023-01-19T11:31:28.067Z,6.77
2023-01-19T11:32:30.123Z,8.50
2023-01-19T11:33:49.774Z,6.73
2023-01-19T11:34:52.412Z,7.90
2023-01-19T11:36:06.740Z,6.70
2023-01-19T11:37:20.856Z,5.80
2023-01-19T11:38:23.478Z,4.97
2023-01-19T11:39:28.258Z,7.23
2023-01-19T11:40:30.514Z,6.00
2023-01-19T11:41:35.375Z,8.27
2023-01-19T11:42:37.438Z,6.50
2023-01-19T11:43:48.696Z,5.80
2023-01-19T11:45:11.964Z,6.50
2023-01-19T11:46:14.195Z,5.10
2023-01-19T11:47:44.253Z,6.43
2023-01-19T11:49:01.130Z,5.30
2023-01-19T11:50:11.509Z,5.53
2023-01-19T11:51:18.776Z,8.73
2023-01-19T11:52:28.960Z,4.80
2023-01-19T11:53:35.525Z,6.10
2023-01-19T11:54:46.273Z,5.67
2023-01-19T11:55:56.978Z,7.53
2023-01-19T11:57:00.391Z,7.00
2023-01-19T11:58:03.449Z,5.03
2023-01-19T11:59:05.334Z,8.17
2023-01-19T12:00:19.701Z,8.50
2023-01-19T12:01:30.289Z,8.37
2023-01-19T12:02:45.704Z,6.07
2023-01-19T12:03:57.107Z,5.67
2023-01-19T12:05:04.865Z,5.93
2023-01-19T12:06:21.689Z,7.93
2023-01-19T12:07:29.493Z,5.63
2023-01-19T12:08:39.571Z,5.47
2023-01-19T12:09:46.243Z,6.33
2023-01-19T12:10:49.314Z,6.77
2023-01-19T12:12:14.080Z,6.00
2023-01-19T12:13:20.578Z,6.97
2023-01-19T12:14:50.363Z,6.20
2023-01-19T12:16:01.016Z,7.63
2023-01-19T12:17:07.239Z,6.23
2023-01-19T12:18:21.069Z,5.30
2023-01-19T12:19:29.431Z,5.33
2023-01-19T12:20:39.603Z,7.50
2023-01-19T12:21:41.823Z,5.90
2023-01-19T12:22:52.190Z,7.37
2023-01-19T12:24:16.685Z,6.33
2023-01-19T12:25:24.054Z,4.50
2023-01-19T12:26:35.097Z,5.33
2023-01-19T12:27:41.026Z,7.73
2023-01-19T12:28:46.853Z,7.57
2023-01-19T12:29:48.745Z,4.93
2023-01-19T12:30:52.204Z,6.47
2023-01-19T12:32:14.395Z,6.10
2023-01-19T12:33:31.148Z,4.90
2023-01-19T12:34:46.933Z,5.43
2023-01-19T12:36:02.246Z,5.83
2023-01-19T12:37:06.427Z,6.17
2023-01-19T12:38:34.885Z,4.47
2023-01-19T12:39:48.201Z,5.37
2023-01-19T12:40:49.948Z,7.40
2023-01-19T12:42:16.886Z,5.70
2023-01-19T12:43:18.828Z,5.07
2023-01-19T12:44:25.310Z,6.07
2023-01-19T12:45:33.529Z,4.80
2023-01-19T12:46:36.751Z,6.87
2023-01-19T12:47:38.753Z,6.70
2023-01-19T12:48:40.862Z,6.53
2023-01-19T12:49:59.470Z,7.17
2023-01-19T12:51:01.184Z,9.33
2023-01-19T12:52:21.067Z,7.07
2023-01-19T12:53:22.907Z,6.70
2023-01-19T12:54:34.231Z,6.00
2023-01-19T12:55:38.986Z,5.80
2023-01-19T12:56:40.719Z,5.87
2023-01-19T12:58:04.958Z,6.27
2023-01-19T12:59:07.084Z,7.57
2023-01-19T13:00:33.902Z,9.00
2023-01-19T13:01:35.724Z,9.17
2023-01-19T13:02:47.019Z,12.00
2023-01-19T13:04:24.371Z,10.20
2023-01-19T13:05:56.007Z,10.10
2023-01-19T13:07:10.304Z,7.27
2023-01-19T13:08:15.909Z,5.90
2023-01-19T13:09:30.015Z,7.37
2023-01-19T13:11:13.852Z,9.50
2023-01-19T13:12:15.595Z,7.50
2023-01-19T13:13:27.408Z,7.00
2023-01-19T13:14:37.665Z,8.20
2023-01-19T13:15:40.428Z,7.60
2023-01-19T13:16:42.129Z,7.63
2023-01-19T13:17:54.947Z,6.37
2023-01-19T13:19:06.215Z,9.40
2023-01-19T13:20:43.623Z,7.40
2023-01-19T13:21:47.622Z,5.63
2023-01-19T13:22:51.226Z,6.83
2023-01-19T13:23:58.802Z,6.90
2023-01-19T13:25:21.825Z,7.17
2023-01-19T13:26:27.353Z,8.23
2023-01-19T13:27:29.211Z,7.33
2023-01-19T13:28:35.928Z,7.90
2023-01-19T13:29:41.213Z,9.70
2023-01-19T13:30:56.517Z,8.20
2023-01-19T13:32:04.759Z,8.53
2023-01-19T13:33:17.675Z,9.33
2023-01-19T13:34:24.035Z,8.57
2023-01-19T13:35:26.901Z,6.43
2023-01-19T13:36:36.105Z,7.60
2023-01-19T13:37:41.512Z,8.40
2023-01-19T13:38:43.559Z,7.03
2023-01-19T13:39:49.967Z,9.20
2023-01-19T13:40:53.631Z,7.70
2023-01-19T13:41:59.238Z,8.07
2023-01-19T13:43:01.407Z,9.10
2023-01-19T13:44:14.898Z,7.60
2023-01-19T13:45:28.048Z,9.33
2023-01-19T13:46:31.118Z,9.87
2023-01-19T13:47:44.435Z,8.00
2023-01-19T13:48:58.822Z,8.33
2023-01-19T13:50:01.861Z,7.33
2023-01-19T13:51:06.596Z,9.30
2023-01-19T13:52:13.902Z,7.63
2023-01-19T13:53:21.037Z,6.40
2023-01-19T13:54:25.954Z,11.50
2023-01-19T13:55:29.959Z,12.27
2023-01-19T13:56:31.869Z,12.10
2023-01-19T13:57:42.653Z,8.77
2023-01-19T13:58:56.792Z,10.33
2023-01-19T14:00:16.067Z,8.87
2023-01-19T14:01:22.757Z,11.43
2023-01-19T14:02:24.836Z,8.87
2023-01-19T14:03:26.843Z,10.10
2023-01-19T14:04:33.850Z,9.03
2023-01-19T14:05:39.057Z,9.10
2023-01-19T14:06:46.245Z,8.60
2023-01-19T14:07:49.425Z,12.17
2023-01-19T14:09:18.801Z,8.13
2023-01-19T14:10:20.733Z,8.80
2023-01-19T14:11:22.511Z,11.57